createdAt,value
2019-04-24T00:02:15.280Z,12.11
2019-04-24T00:04:58.988Z,11.81
2019-04-24T00:09:46.435Z,11.52
2019-04-24T00:12:26.118Z,11.53
2019-04-24T00:15:37.177Z,11.47
2019-04-24T00:18:20.049Z,11.44
2019-04-24T00:20:37.234Z,11.38
2019-04-24T00:25:32.596Z,11.24
2019-04-24T00:30:41.221Z,11.41
2019-04-24T00:33:15.363Z,11.54
2019-04-24T00:35:57.911Z,11.72
2019-04-24T00:41:05.154Z,11.66
2019-04-24T00:45:58.717Z,11.56
2019-04-24T00:51:11.702Z,11.41
2019-04-24T00:56:03.660Z,11.13
2019-04-24T00:58:31.787Z,11.04
2019-04-24T01:07:22.160Z,11.12
2019-04-24T01:09:54.554Z,11.04
2019-04-24T01:12:32.358Z,11.00
2019-04-24T01:14:48.654Z,10.92
2019-04-24T01:20:09.463Z,10.85
2019-04-24T01:22:26.305Z,10.76
2019-04-24T01:24:59.456Z,10.93
2019-04-24T01:27:24.978Z,10.87
2019-04-24T01:30:11.624Z,10.62
2019-04-24T01:32:25.253Z,10.63
2019-04-24T01:35:03.143Z,10.55
2019-04-24T01:37:48.008Z,10.51
2019-04-24T01:40:27.293Z,10.54
2019-04-24T01:43:05.438Z,10.61
2019-04-24T01:45:27.253Z,10.67
2019-04-24T01:48:15.591Z,10.76
2019-04-24T01:53:03.172Z,10.68
2019-04-24T01:55:31.416Z,10.49
2019-04-24T01:58:08.504Z,10.38
2019-04-24T02:05:31.379Z,10.57
2019-04-24T02:08:23.276Z,10.52
2019-04-24T02:15:50.082Z,10.71
2019-04-24T02:18:38.339Z,10.67
2019-04-24T02:21:08.279Z,10.49
2019-04-24T02:23:25.473Z,10.34
2019-04-24T02:26:12.529Z,10.09
2019-04-24T02:36:35.832Z,10.19
2019-04-24T02:39:34.630Z,10.25
2019-04-24T02:49:49.328Z,10.38
2019-04-24T02:52:03.730Z,10.38
2019-04-24T02:54:55.431Z,10.46
2019-04-24T02:57:11.957Z,10.60
2019-04-24T02:59:40.728Z,10.61
2019-04-24T03:02:39.019Z,10.66
2019-04-24T03:04:41.779Z,10.76
2019-04-24T03:07:32.915Z,10.85
2019-04-24T03:15:28.966Z,10.99
2019-04-24T03:26:15.698Z,10.64
2019-04-24T03:31:06.651Z,10.41
2019-04-24T03:33:46.578Z,10.49
2019-04-24T03:46:14.625Z,10.32
2019-04-24T03:54:07.901Z,10.18
2019-04-24T03:56:41.758Z,10.23
2019-04-24T03:59:29.997Z,10.42
2019-04-24T04:02:26.999Z,10.23
2019-04-24T04:05:14.020Z,9.96
2019-04-24T04:07:40.349Z,9.90
2019-04-24T04:10:22.169Z,9.60
2019-04-24T04:13:06.358Z,9.44
2019-04-24T04:18:15.085Z,9.35
2019-04-24T04:28:39.859Z,8.81
2019-04-24T04:34:23.956Z,9.05
2019-04-24T04:36:56.335Z,8.94
2019-04-24T04:39:06.953Z,8.76
2019-04-24T04:50:14.070Z,9.11
2019-04-24T05:04:30.703Z,9.63
2019-04-24T05:14:43.243Z,10.04
2019-04-24T05:40:37.679Z,11.31
2019-04-24T05:51:06.879Z,11.90
2019-04-24T05:53:55.598Z,12.03
2019-04-24T05:59:06.042Z,12.41
2019-04-24T06:01:50.659Z,13.52
2019-04-24T06:10:14.823Z,17.22
2019-04-24T06:12:55.609Z,17.94
2019-04-24T06:15:30.246Z,17.41
2019-04-24T06:18:14.635Z,17.87
2019-04-24T06:20:49.745Z,17.12
2019-04-24T06:23:11.962Z,15.76
2019-04-24T06:25:59.531Z,14.62
2019-04-24T06:28:11.169Z,14.60
2019-04-24T06:30:55.040Z,14.01
2019-04-24T06:33:18.053Z,14.54
2019-04-24T06:36:04.090Z,14.86
2019-04-24T06:38:25.137Z,15.08
2019-04-24T06:51:27.043Z,14.91
2019-04-24T06:54:12.902Z,15.08
2019-04-24T07:01:55.807Z,15.55
2019-04-24T07:07:29.453Z,15.74
2019-04-24T07:10:47.023Z,15.91
2019-04-24T07:15:53.462Z,15.54
2019-04-24T07:18:26.669Z,15.74
2019-04-24T07:21:03.273Z,15.71
2019-04-24T07:23:45.123Z,15.69
2019-04-24T07:26:09.580Z,16.02
2019-04-24T07:28:41.908Z,16.18
2019-04-24T07:31:50.758Z,16.33
2019-04-24T07:34:39.252Z,16.25
2019-04-24T07:37:28.985Z,16.35
2019-04-24T07:40:01.268Z,16.34
2019-04-24T07:47:29.262Z,16.80
2019-04-24T07:49:58.600Z,16.97
2019-04-24T07:52:40.545Z,17.17
2019-04-24T07:55:17.606Z,17.32
2019-04-24T07:57:37.223Z,17.40
2019-04-24T08:02:49.771Z,17.62
2019-04-24T08:07:55.264Z,17.99
2019-04-24T08:10:42.138Z,18.17
2019-04-24T08:13:23.419Z,18.08
2019-04-24T08:18:25.367Z,18.21
2019-04-24T08:23:39.039Z,18.41
2019-04-24T08:26:00.478Z,18.45
2019-04-24T08:28:42.215Z,18.57
2019-04-24T08:31:44.066Z,18.51
2019-04-24T08:36:33.628Z,18.86
2019-04-24T08:42:15.479Z,19.24
2019-04-24T08:44:54.272Z,19.23
2019-04-24T08:47:12.381Z,19.34
2019-04-24T08:54:43.231Z,19.51
2019-04-24T08:57:55.933Z,19.59
2019-04-24T09:08:38.070Z,20.01
2019-04-24T09:11:25.077Z,20.13
2019-04-24T09:16:44.419Z,20.06
2019-04-24T09:19:16.952Z,20.25
2019-04-24T09:21:42.621Z,20.38
2019-04-24T09:35:04.636Z,20.15
2019-04-24T09:43:46.038Z,20.61
2019-04-24T09:46:04.435Z,20.65
2019-04-24T09:48:49.307Z,20.82
2019-04-24T09:56:23.043Z,20.82
2019-04-24T09:59:14.157Z,20.97
2019-04-24T10:04:22.122Z,20.86
2019-04-24T10:09:08.568Z,20.58
2019-04-24T10:14:39.199Z,20.91
2019-04-24T10:20:05.833Z,21.01
2019-04-24T10:22:45.796Z,20.97
2019-04-24T10:28:02.969Z,21.23
2019-04-24T10:30:50.452Z,21.55
2019-04-24T10:33:35.586Z,21.72
2019-04-24T10:36:10.471Z,21.72
2019-04-24T10:39:36.284Z,21.45
2019-04-24T10:42:06.241Z,21.69
2019-04-24T10:50:36.915Z,22.02
2019-04-24T10:53:14.903Z,22.02
2019-04-24T10:58:16.436Z,21.91
2019-04-24T11:01:06.703Z,22.05
2019-04-24T11:06:49.996Z,22.23
2019-04-24T11:09:08.961Z,21.82
2019-04-24T11:11:45.763Z,22.11
2019-04-24T11:19:47.988Z,22.53
2019-04-24T11:22:19.235Z,22.63
2019-04-24T11:25:01.396Z,22.96
2019-04-24T11:27:30.630Z,22.96
2019-04-24T11:32:57.823Z,22.96
2019-04-24T11:36:04.046Z,22.78
2019-04-24T11:38:57.790Z,22.51
2019-04-24T11:41:09.132Z,22.27
2019-04-24T11:43:53.267Z,22.16
2019-04-24T11:47:06.067Z,22.31
2019-04-24T11:52:15.919Z,22.79
2019-04-24T11:54:48.752Z,22.79
2019-04-24T11:57:26.738Z,22.45
2019-04-24T11:59:32.082Z,22.38
2019-04-24T12:02:41.778Z,22.38
2019-04-24T12:05:47.753Z,22.37
2019-04-24T12:08:22.116Z,22.37
2019-04-24T12:10:45.389Z,22.55
2019-04-24T12:13:34.437Z,22.93
2019-04-24T12:16:12.833Z,22.55
2019-04-24T12:21:46.123Z,22.49
2019-04-24T12:24:07.227Z,22.91
2019-04-24T12:26:37.105Z,22.91
2019-04-24T12:29:07.581Z,23.07
2019-04-24T12:31:52.767Z,23.07
2019-04-24T12:34:33.897Z,23.02
2019-04-24T12:37:03.388Z,23.31
2019-04-24T12:39:39.630Z,23.39
2019-04-24T12:42:14.433Z,23.17
2019-04-24T12:52:13.979Z,23.41
2019-04-24T12:55:00.999Z,23.30
2019-04-24T12:57:56.387Z,23.55
2019-04-24T13:03:38.781Z,23.66
2019-04-24T13:14:07.440Z,23.64
2019-04-24T13:16:35.079Z,23.57
2019-04-24T13:19:12.059Z,23.72
2019-04-24T13:21:11.614Z,23.65
2019-04-24T13:23:53.293Z,23.89
2019-04-24T13:26:53.894Z,23.82
2019-04-24T13:32:16.942Z,23.97
2019-04-24T13:35:13.543Z,23.67
2019-04-24T13:38:01.785Z,23.71
2019-04-24T13:40:03.028Z,23.60
2019-04-24T13:42:50.936Z,23.74
2019-04-24T13:50:34.465Z,24.23
2019-04-24T13:55:36.941Z,24.53
2019-04-24T14:00:47.267Z,24.71
2019-04-24T14:05:48.998Z,24.53
2019-04-24T14:11:02.361Z,24.55
2019-04-24T14:13:31.097Z,24.46
2019-04-24T14:21:20.020Z,24.62
2019-04-24T14:24:05.729Z,24.72
2019-04-24T14:31:25.036Z,24.44
2019-04-24T14:34:01.882Z,24.62
2019-04-24T14:36:32.916Z,24.55
2019-04-24T14:39:16.570Z,24.58
2019-04-24T14:41:28.013Z,24.50
2019-04-24T14:45:42.290Z,24.53
2019-04-24T14:47:13.780Z,24.68
2019-04-24T14:51:58.777Z,24.78
2019-04-24T14:57:03.226Z,24.88
2019-04-24T14:59:34.164Z,24.64
2019-04-24T15:04:39.392Z,24.71
2019-04-24T15:07:08.495Z,24.66
2019-04-24T15:09:32.522Z,24.62
2019-04-24T15:12:19.229Z,24.56
2019-04-24T15:17:18.658Z,24.42
2019-04-24T15:22:33.663Z,24.76
2019-04-24T15:25:19.673Z,24.86
2019-04-24T15:27:23.607Z,25.24
2019-04-24T15:30:02.811Z,25.37
2019-04-24T15:32:31.773Z,25.58
2019-04-24T15:35:12.551Z,25.37
2019-04-24T15:37:33.650Z,25.22
2019-04-24T15:40:30.963Z,25.11
2019-04-24T15:50:12.584Z,25.11
2019-04-24T15:52:08.607Z,25.02
2019-04-24T15:54:37.864Z,25.07
2019-04-24T15:57:07.017Z,25.11
2019-04-24T16:00:04.616Z,25.13
2019-04-24T16:02:54.113Z,25.52
2019-04-24T16:04:55.974Z,25.94
2019-04-24T16:07:29.657Z,26.21
2019-04-24T16:10:03.010Z,26.13
2019-04-24T16:12:33.432Z,25.94
2019-04-24T16:15:30.875Z,25.66
2019-04-24T16:20:27.393Z,25.28
2019-04-24T16:23:00.759Z,25.53
2019-04-24T16:25:36.552Z,25.77
2019-04-24T16:30:41.390Z,18.42
2019-04-24T16:33:21.718Z,18.42
2019-04-24T16:35:53.398Z,17.85
2019-04-24T16:38:18.316Z,17.17
2019-04-24T16:43:44.790Z,16.24
2019-04-24T16:46:38.302Z,15.98
2019-04-24T16:48:47.011Z,15.91
2019-04-24T16:51:26.181Z,15.88
2019-04-24T16:54:00.609Z,15.79
2019-04-24T16:56:32.632Z,15.74
2019-04-24T16:58:55.047Z,15.50
2019-04-24T17:01:37.823Z,15.09
2019-04-24T17:09:09.047Z,14.26
2019-04-24T17:11:36.162Z,14.18
2019-04-24T17:14:27.634Z,14.10
2019-04-24T17:17:26.343Z,13.79
2019-04-24T17:22:03.838Z,13.57
2019-04-24T17:24:35.451Z,13.35
2019-04-24T17:27:12.650Z,13.19
2019-04-24T17:32:11.724Z,12.93
2019-04-24T17:34:54.910Z,12.88
2019-04-24T17:39:32.396Z,12.82
2019-04-24T17:42:15.249Z,12.71
2019-04-24T17:45:04.884Z,12.74
2019-04-24T17:55:04.383Z,12.88
2019-04-24T17:57:34.822Z,12.83
2019-04-24T17:59:38.586Z,12.87
2019-04-24T18:02:13.800Z,12.81
2019-04-24T18:04:43.774Z,12.83
2019-04-24T18:07:14.547Z,12.79
2019-04-24T18:09:43.897Z,12.66
2019-04-24T18:12:14.244Z,12.60
2019-04-24T18:14:43.458Z,12.52
2019-04-24T18:17:13.540Z,12.43
2019-04-24T18:19:42.879Z,12.32
2019-04-24T18:22:12.798Z,12.17
2019-04-24T18:25:13.604Z,12.17
2019-04-24T18:27:43.536Z,12.08
2019-04-24T18:30:14.358Z,12.13
2019-04-24T18:32:43.549Z,12.09
2019-04-24T18:35:12.733Z,12.04
2019-04-24T18:37:42.961Z,11.99
2019-04-24T18:40:13.973Z,11.95
2019-04-24T18:42:43.244Z,11.88
2019-04-24T18:45:15.033Z,11.82
2019-04-24T18:47:43.734Z,11.85
2019-04-24T18:50:13.603Z,11.97
2019-04-24T18:52:49.572Z,11.88
2019-04-24T18:55:14.446Z,11.90
2019-04-24T18:57:43.645Z,11.88
2019-04-24T19:00:13.227Z,11.89
2019-04-24T19:02:42.523Z,11.89
2019-04-24T19:05:13.788Z,11.92
2019-04-24T19:07:42.697Z,11.91
2019-04-24T19:10:12.719Z,11.94
2019-04-24T19:12:43.050Z,11.91
2019-04-24T19:15:13.696Z,11.91
2019-04-24T19:17:54.378Z,11.80
2019-04-24T19:20:15.989Z,11.75
2019-04-24T19:22:45.672Z,11.73
2019-04-24T19:25:15.097Z,11.69
2019-04-24T19:27:44.333Z,11.59
2019-04-24T19:30:14.570Z,11.61
2019-04-24T19:32:43.731Z,11.53
2019-04-24T19:35:13.832Z,11.65
2019-04-24T19:37:43.910Z,11.56
2019-04-24T19:40:31.033Z,11.48
2019-04-24T19:42:45.743Z,11.41
2019-04-24T19:45:15.937Z,11.45
2019-04-24T19:47:45.193Z,11.35
2019-04-24T19:50:15.838Z,11.35
2019-04-24T19:52:45.180Z,11.45
2019-04-24T19:55:16.043Z,11.40
2019-04-24T19:57:45.392Z,11.41
2019-04-24T20:00:16.085Z,11.31
2019-04-24T20:02:45.234Z,11.21
2019-04-24T20:05:17.352Z,11.33
2019-04-24T20:07:45.494Z,11.18
2019-04-24T20:10:24.589Z,11.20
2019-04-24T20:12:53.828Z,11.26
2019-04-24T20:15:23.347Z,11.27
2019-04-24T20:17:53.517Z,11.26
2019-04-24T20:20:23.531Z,11.30
2019-04-24T20:22:53.468Z,11.23
2019-04-24T20:25:22.700Z,11.13
2019-04-24T20:27:53.079Z,10.78
2019-04-24T20:30:23.070Z,10.79
2019-04-24T20:32:52.356Z,10.55
2019-04-24T20:35:21.505Z,10.60
2019-04-24T20:37:50.708Z,10.39
2019-04-24T20:40:21.606Z,10.30
2019-04-24T20:42:50.924Z,10.14
2019-04-24T20:45:21.839Z,10.18
2019-04-24T20:47:51.295Z,10.27
2019-04-24T20:50:21.969Z,10.30
2019-04-24T20:52:51.598Z,10.43
2019-04-24T20:55:22.439Z,10.21
2019-04-24T20:57:52.029Z,10.18
2019-04-24T21:00:25.811Z,9.96
2019-04-24T21:02:55.221Z,9.91
2019-04-24T21:05:31.999Z,9.98
2019-04-24T21:08:12.724Z,9.96
2019-04-24T21:10:41.935Z,9.93
2019-04-24T21:13:11.114Z,9.86
2019-04-24T21:15:41.763Z,9.75
2019-04-24T21:18:11.082Z,9.62
2019-04-24T21:20:40.415Z,9.79
2019-04-24T21:23:11.096Z,9.77
2019-04-24T21:25:40.278Z,9.70
2019-04-24T21:28:09.464Z,9.66
2019-04-24T21:30:38.605Z,9.61
2019-04-24T21:33:07.778Z,9.41
2019-04-24T21:35:36.945Z,9.43
2019-04-24T21:38:06.125Z,9.42
2019-04-24T21:40:35.266Z,9.50
2019-04-24T21:43:04.471Z,9.56
2019-04-24T21:45:33.645Z,9.59
2019-04-24T21:48:03.473Z,9.45
2019-04-24T21:50:33.421Z,9.50
2019-04-24T21:53:02.621Z,9.41
2019-04-24T21:55:33.061Z,9.21
2019-04-24T21:58:05.683Z,9.19
2019-04-24T22:03:11.727Z,9.13
2019-04-24T22:05:48.732Z,9.12
2019-04-24T22:08:17.986Z,9.20
2019-04-24T22:10:47.463Z,9.17
2019-04-24T22:13:17.142Z,9.02
2019-04-24T22:15:46.637Z,8.96
2019-04-24T22:18:15.824Z,8.74
2019-04-24T22:20:49.034Z,8.70
2019-04-24T22:23:32.626Z,8.74
2019-04-24T22:26:02.568Z,8.90
2019-04-24T22:28:32.919Z,8.82
2019-04-24T22:31:20.431Z,8.83
2019-04-24T22:33:54.839Z,8.87
2019-04-24T22:36:24.430Z,8.93
2019-04-24T22:39:15.339Z,9.01
2019-04-24T22:41:44.529Z,9.06
2019-04-24T22:44:13.687Z,9.09
2019-04-24T22:46:42.860Z,9.15
2019-04-24T22:49:12.037Z,9.11
2019-04-24T22:51:42.018Z,9.05
2019-04-24T22:54:11.267Z,9.09
2019-04-24T22:56:49.535Z,9.19
2019-04-24T22:59:12.342Z,9.28
2019-04-24T23:01:53.824Z,9.21
2019-04-24T23:04:12.884Z,9.29
2019-04-24T23:06:42.528Z,9.26
2019-04-24T23:09:22.708Z,9.10
2019-04-24T23:11:52.445Z,8.84
2019-04-24T23:14:21.948Z,8.79
2019-04-24T23:16:51.925Z,8.50
2019-04-24T23:19:21.490Z,8.53
2019-04-24T23:22:12.146Z,8.68
2019-04-24T23:24:54.246Z,8.72
2019-04-24T23:27:42.634Z,8.75
2019-04-24T23:30:27.965Z,8.67
2019-04-24T23:33:22.144Z,8.75
2019-04-24T23:35:53.120Z,8.90
2019-04-24T23:38:22.213Z,8.55
2019-04-24T23:40:52.051Z,8.48
2019-04-24T23:43:21.499Z,8.48
2019-04-24T23:45:51.709Z,8.48
2019-04-24T23:48:21.778Z,8.42
2019-04-24T23:50:51.856Z,8.57
2019-04-24T23:53:21.469Z,8.60
2019-04-24T23:55:50.567Z,8.43
2019-04-24T23:58:19.848Z,8.23
